FW7345 Weather Reports


Display with metric or nautical units.
time (UTC)temp
F
wind
direction
speed
MPH
gust
MPH
rain 1hr
in
rain 24hr
in
rain mn
in
humidity
%
barometer
mb
20220528011604 83 0 0.0 0.0 0.00 0.00 0.00 63 1013.7
20220528010105 85 0 0.0 0.0 0.00 0.00 0.00 59 1013.6
20220528004635 87 0 0.0 0.0 0.00 0.00 0.00 57 1013.6
20220528003054 89 0 0.0 0.0 0.00 0.00 0.00 57 1013.4
20220528001601 93 0 0.0 0.0 0.00 0.00 0.00 55 1013.3
20220528000058 97 0 0.0 0.0 0.00 0.00 0.00 48 1013.3
20220527234605 99 0 0.0 0.0 0.00 0.00 0.00 46 1013.4
20220527233103 100 0 0.0 0.0 0.00 0.00 0.00 40 1013.5
20220527231600 99 0 0.0 1.0 0.00 0.00 0.00 42 1013.6
20220527230103 98 212 0.0 3.0 0.00 0.00 0.00 41 1013.7
20220527224602 96 19 2.0 4.0 0.00 0.00 0.00 42 1013.8
20220527223142 96 330 2.0 5.0 0.00 0.00 0.00 45 1014.2
20220527221557 97 71 0.0 3.0 0.00 0.00 0.00 46 1014.1
20220527220105 96 320 2.0 6.0 0.00 0.00 0.00 46 1014.2
20220527214607 97 330 1.0 6.0 0.00 0.00 0.00 46 1014.3
20220527213106 95 139 2.0 5.0 0.00 0.00 0.00 51 1014.5
20220527211559 95 316 2.0 4.0 0.00 0.00 0.00 51 1014.8
20220527210106 95 327 1.0 5.0 0.00 0.00 0.00 49 1015.1
20220527204602 95 276 4.0 6.0 0.00 0.00 0.00 50 1015.2
20220527203101 94 208 1.0 6.0 0.00 0.00 0.00 52 1015.5
20220527201617 95 58 1.0 5.0 0.00 0.00 0.00 53 1015.8
20220527200104 95 68 1.0 3.0 0.00 0.00 0.00 52 1016.0
20220527194656 92 0 1.0 8.0 0.00 0.00 0.00 56 1016.1
20220527193102 92 269 2.0 11.0 0.00 0.00 0.00 55 1016.3
20220527191603 92 250 2.0 9.0 0.00 0.00 0.00 55 1016.4
20220527190101 91 214 4.0 8.0 0.00 0.00 0.00 56 1016.5
20220527184556 91 288 5.0 8.0 0.00 0.00 0.00 54 1016.6
20220527183101 91 276 3.0 7.0 0.00 0.00 0.00 59 1016.8
20220527181552 90 296 2.0 8.0 0.00 0.00 0.00 62 1017.1
20220527180059 89 282 4.0 10.0 0.00 0.00 0.00 62 1017.3
20220527174613 89 258 3.0 6.0 0.00 0.00 0.00 65 1017.4
20220527173059 88 323 1.0 8.0 0.00 0.00 0.00 66 1017.6
20220527171602 87 203 4.0 9.0 0.00 0.00 0.00 68 1017.7
20220527170107 85 269 4.0 9.0 0.00 0.00 0.00 71 1017.9
20220527164555 85 233 3.0 9.0 0.00 0.00 0.00 71 1018.0
20220527163055 84 250 2.0 8.0 0.00 0.00 0.00 74 1018.1
20220527161557 84 334 3.0 10.0 0.00 0.00 0.00 75 1018.2
20220527160106 83 252 2.0 10.0 0.00 0.00 0.00 75 1018.2
20220527154555 82 274 4.0 9.0 0.00 0.00 0.00 76 1018.2
20220527153104 81 244 3.0 8.0 0.00 0.00 0.00 79 1018.4
20220527151559 81 318 3.0 7.0 0.00 0.00 0.00 79 1018.3
20220527150101 81 330 4.0 8.0 0.00 0.00 0.00 80 1018.4
20220527144600 80 318 1.0 7.0 0.00 0.00 0.00 83 1018.4
20220527143101 80 320 3.0 9.0 0.00 0.00 0.00 83 1018.3
20220527141603 79 333 1.0 4.0 0.00 0.00 0.00 85 1018.5
20220527140100 78 308 2.0 6.0 0.00 0.00 0.00 87 1018.4
20220527134549 77 321 2.0 5.0 0.00 0.00 0.00 89 1018.3
20220527133053 76 303 1.0 3.0 0.00 0.00 0.00 91 1018.2
20220527131555 74 0 0.0 0.0 0.00 0.00 0.00 95 1018.2
20220527130049 73 0 0.0 0.0 0.00 0.00 0.00 96 1018.1
20220527124554 72 0 0.0 0.0 0.00 0.00 0.00 97 1018.1
20220527123055 71 0 0.0 0.0 0.00 0.00 0.00 97 1018.0
20220527121605 70 0 0.0 0.0 0.00 0.00 0.00 96 1017.9
20220527120100 69 0 0.0 0.0 0.00 0.00 0.00 96 1018.0
20220527114603 70 0 0.0 0.0 0.00 0.00 0.00 96 1017.8
20220527113100 70 0 0.0 0.0 0.00 0.00 0.00 96 1017.7
20220527111606 70 0 0.0 0.0 0.00 0.00 0.00 96 1017.4
20220527110106 70 0 0.0 0.0 0.00 0.00 0.00 96 1017.3
20220527104602 69 0 0.0 1.0 0.00 0.00 0.00 96 1017.0
20220527103056 68 0 0.0 0.0 0.00 0.00 0.00 96 1016.7
20220527101559 68 0 0.0 0.0 0.00 0.00 0.00 95 1016.4
20220527100058 68 0 0.0 0.0 0.00 0.00 0.00 95 1016.3
20220527094603 67 0 0.0 0.0 0.00 0.00 0.00 94 1016.0
20220527093101 67 0 0.0 0.0 0.00 0.00 0.00 94 1015.9
20220527091557 68 0 0.0 0.0 0.00 0.00 0.00 94 1015.8
20220527090104 69 0 0.0 0.0 0.00 0.00 0.00 94 1015.7
20220527084558 68 0 0.0 0.0 0.00 0.00 0.00 94 1015.5
20220527083108 69 0 0.0 0.0 0.00 0.00 0.00 94 1015.7
20220527081602 69 0 0.0 0.0 0.00 0.00 0.00 93 1015.6
20220527080106 69 0 0.0 0.0 0.00 0.00 0.00 94 1015.5
20220527074601 68 0 0.0 0.0 0.00 0.00 0.00 93 1015.5
20220527073054 68 0 0.0 0.0 0.00 0.00 0.00 92 1015.6
20220527071555 69 0 0.0 0.0 0.00 0.00 0.00 91 1015.6
20220527070132 69 0 0.0 0.0 0.00 0.00 0.00 91 1015.5
20220527064601 69 0 0.0 0.0 0.00 0.00 0.00 91 1015.6
20220527063058 69 0 0.0 0.0 0.00 0.00 0.00 89 1015.6
20220527061550 70 0 0.0 0.0 0.00 0.00 0.00 89 1015.7
20220527060103 71 0 0.0 0.0 0.00 0.00 0.00 89 1015.8
20220527054604 70 0 0.0 0.0 0.00 0.00 0.00 89 1015.7
20220527053102 70 0 0.0 0.0 0.00 0.00 0.00 89 1015.7
20220527051551 70 0 0.0 0.0 0.00 0.00 0.00 87 1015.7
20220527050052 71 0 0.0 0.0 0.00 0.00 0.00 85 1015.7
20220527044551 72 0 0.0 0.0 0.00 0.00 0.00 85 1015.5
20220527043053 72 0 0.0 0.0 0.00 0.00 0.00 85 1015.4
20220527041606 73 0 0.0 0.0 0.00 0.00 0.00 83 1015.3
20220527040107 73 0 0.0 0.0 0.00 0.00 0.00 82 1015.2
20220527034559 74 0 1.0 3.0 0.00 0.00 0.00 81 1015.0
20220527033059 75 155 0.0 3.0 0.00 0.00 0.00 80 1014.9
20220527031604 75 172 1.0 4.0 0.00 0.00 0.00 80 1014.8
20220527030056 75 170 1.0 6.0 0.00 0.00 0.00 78 1014.5
20220527024556 74 206 3.0 8.0 0.00 0.00 0.00 79 1014.3
20220527023100 72 0 0.0 2.0 0.00 0.00 0.00 85 1014.2
20220527021552 73 0 0.0 0.0 0.00 0.00 0.00 81 1013.9
20220527020057 74 0 0.0 0.0 0.00 0.00 0.00 77 1013.8
20220527014604 75 0 0.0 0.0 0.00 0.00 0.00 74 1013.6
20220527013058 77 0 0.0 0.0 0.00 0.00 0.00 70 1013.5